sensor_id;sensor_type;location;lat;lon;timestamp;pressure;altitude;pressure_sealevel;temperature;humidity
64668;BME280;51077;42.716;23.344;2023-04-23T00:02:11;95325.31;;;13.98;49.79
64668;BME280;51077;42.716;23.344;2023-04-23T00:04:37;95325.06;;;13.96;49.81
64668;BME280;51077;42.716;23.344;2023-04-23T00:07:04;95324.13;;;13.94;49.86
64668;BME280;51077;42.716;23.344;2023-04-23T00:09:30;95321.91;;;13.92;49.80
64668;BME280;51077;42.716;23.344;2023-04-23T00:11:58;95327.22;;;13.90;49.93
64668;BME280;51077;42.716;23.344;2023-04-23T00:14:23;95317.22;;;13.87;50.05
64668;BME280;51077;42.716;23.344;2023-04-23T00:16:50;95317.03;;;13.85;50.11
64668;BME280;51077;42.716;23.344;2023-04-23T00:19:15;95318.09;;;13.82;50.14
64668;BME280;51077;42.716;23.344;2023-04-23T00:21:40;95321.41;;;13.80;50.01
64668;BME280;51077;42.716;23.344;2023-04-23T00:24:06;95321.72;;;13.77;50.25
64668;BME280;51077;42.716;23.344;2023-04-23T00:26:32;95327.75;;;13.75;50.39
64668;BME280;51077;42.716;23.344;2023-04-23T00:28:57;95333.78;;;13.74;50.21
64668;BME280;51077;42.716;23.344;2023-04-23T00:31:22;95329.56;;;13.73;50.21
64668;BME280;51077;42.716;23.344;2023-04-23T00:33:48;95323.09;;;13.70;50.26
64668;BME280;51077;42.716;23.344;2023-04-23T00:36:14;95320.88;;;13.69;50.31
64668;BME280;51077;42.716;23.344;2023-04-23T00:38:39;95314.38;;;13.66;50.39
64668;BME280;51077;42.716;23.344;2023-04-23T00:41:05;95315.47;;;13.63;50.28
64668;BME280;51077;42.716;23.344;2023-04-23T00:43:31;95318.72;;;13.62;50.44
64668;BME280;51077;42.716;23.344;2023-04-23T00:45:57;95318.31;;;13.57;50.49
64668;BME280;51077;42.716;23.344;2023-04-23T00:48:23;95314.63;;;13.55;50.55
64668;BME280;51077;42.716;23.344;2023-04-23T00:50:57;95313.66;;;13.52;50.53
64668;BME280;51077;42.716;23.344;2023-04-23T00:53:23;95320.22;;;13.49;50.74
64668;BME280;51077;42.716;23.344;2023-04-23T00:55:48;95329.56;;;13.46;50.58
64668;BME280;51077;42.716;23.344;2023-04-23T00:58:14;95334.84;;;13.44;50.69
64668;BME280;51077;42.716;23.344;2023-04-23T01:00:43;95334.09;;;13.44;50.49
64668;BME280;51077;42.716;23.344;2023-04-23T01:03:11;95330.41;;;13.41;50.71
64668;BME280;51077;42.716;23.344;2023-04-23T01:05:39;95327.97;;;13.38;50.70
64668;BME280;51077;42.716;23.344;2023-04-23T01:08:05;95328.28;;;13.34;50.59
64668;BME280;51077;42.716;23.344;2023-04-23T01:10:31;95322.03;;;13.33;50.84
64668;BME280;51077;42.716;23.344;2023-04-23T01:12:57;95326.56;;;13.31;50.75
64668;BME280;51077;42.716;23.344;2023-04-23T01:15:23;95322.13;;;13.28;50.66
64668;BME280;51077;42.716;23.344;2023-04-23T01:17:48;95322.44;;;13.24;50.80
64668;BME280;51077;42.716;23.344;2023-04-23T01:20:14;95322.22;;;13.22;50.81
64668;BME280;51077;42.716;23.344;2023-04-23T01:22:40;95317.94;;;13.21;51.00
64668;BME280;51077;42.716;23.344;2023-04-23T01:25:05;95318.25;;;13.18;50.89
64668;BME280;51077;42.716;23.344;2023-04-23T01:27:32;95317.50;;;13.17;50.83
64668;BME280;51077;42.716;23.344;2023-04-23T01:30:02;95318.78;;;13.16;50.96
64668;BME280;51077;42.716;23.344;2023-04-23T01:32:29;95324.59;;;13.13;50.98
64668;BME280;51077;42.716;23.344;2023-04-23T01:34:55;95321.66;;;13.11;50.92
64668;BME280;51077;42.716;23.344;2023-04-23T01:37:22;95322.69;;;13.07;50.95
64668;BME280;51077;42.716;23.344;2023-04-23T01:39:48;95330.00;;;13.05;51.12
64668;BME280;51077;42.716;23.344;2023-04-23T01:42:13;95333.06;;;13.01;50.95
64668;BME280;51077;42.716;23.344;2023-04-23T01:44:38;95332.09;;;12.99;51.06
64668;BME280;51077;42.716;23.344;2023-04-23T01:47:04;95335.91;;;12.96;50.90
64668;BME280;51077;42.716;23.344;2023-04-23T01:49:30;95328.69;;;12.93;51.26
64668;BME280;51077;42.716;23.344;2023-04-23T01:51:55;95334.00;;;12.91;51.07
64668;BME280;51077;42.716;23.344;2023-04-23T01:54:21;95331.03;;;12.89;51.05
64668;BME280;51077;42.716;23.344;2023-04-23T01:56:46;95330.25;;;12.88;51.09
64668;BME280;51077;42.716;23.344;2023-04-23T01:59:12;95332.06;;;12.86;51.24
64668;BME280;51077;42.716;23.344;2023-04-23T02:01:44;95332.81;;;12.86;51.02
64668;BME280;51077;42.716;23.344;2023-04-23T02:04:11;95335.13;;;12.82;51.00
64668;BME280;51077;42.716;23.344;2023-04-23T02:06:38;95331.63;;;12.81;51.52
64668;BME280;51077;42.716;23.344;2023-04-23T02:09:03;95334.16;;;12.79;51.26
64668;BME280;51077;42.716;23.344;2023-04-23T02:11:29;95332.47;;;12.76;51.29
64668;BME280;51077;42.716;23.344;2023-04-23T02:13:55;95337.00;;;12.74;51.32
64668;BME280;51077;42.716;23.344;2023-04-23T02:16:20;95334.25;;;12.74;51.44
64668;BME280;51077;42.716;23.344;2023-04-23T02:18:48;95330.56;;;12.71;51.21
64668;BME280;51077;42.716;23.344;2023-04-23T02:21:13;95333.81;;;12.70;51.47
64668;BME280;51077;42.716;23.344;2023-04-23T02:23:39;95331.06;;;12.70;51.33
64668;BME280;51077;42.716;23.344;2023-04-23T02:26:04;95340.59;;;12.69;51.47
64668;BME280;51077;42.716;23.344;2023-04-23T02:28:30;95337.09;;;12.68;51.26
64668;BME280;51077;42.716;23.344;2023-04-23T02:30:55;95341.44;;;12.64;51.42
64668;BME280;51077;42.716;23.344;2023-04-23T02:33:21;95337.94;;;12.63;51.52
64668;BME280;51077;42.716;23.344;2023-04-23T02:35:46;95343.19;;;12.61;51.46
64668;BME280;51077;42.716;23.344;2023-04-23T02:38:12;95338.00;;;12.57;51.50
64668;BME280;51077;42.716;23.344;2023-04-23T02:40:37;95346.25;;;12.57;51.52
64668;BME280;51077;42.716;23.344;2023-04-23T02:43:02;95337.56;;;12.53;51.67
64668;BME280;51077;42.716;23.344;2023-04-23T02:45:28;95341.06;;;12.54;51.46
64668;BME280;51077;42.716;23.344;2023-04-23T02:47:53;95336.81;;;12.53;51.61
64668;BME280;51077;42.716;23.344;2023-04-23T02:50:19;95333.84;;;12.51;51.46
64668;BME280;51077;42.716;23.344;2023-04-23T02:52:44;95334.34;;;12.49;51.54
64668;BME280;51077;42.716;23.344;2023-04-23T02:55:10;95340.41;;;12.48;51.39
64668;BME280;51077;42.716;23.344;2023-04-23T02:57:36;95334.69;;;12.46;51.51
64668;BME280;51077;42.716;23.344;2023-04-23T03:00:03;95348.44;;;12.46;51.71
64668;BME280;51077;42.716;23.344;2023-04-23T03:02:31;95341.97;;;12.43;51.39
64668;BME280;51077;42.716;23.344;2023-04-23T03:04:56;95341.97;;;12.43;51.54
64668;BME280;51077;42.716;23.344;2023-04-23T03:07:21;95352.75;;;12.41;51.51
64668;BME280;51077;42.716;23.344;2023-04-23T03:09:47;95341.53;;;12.39;51.54
64668;BME280;51077;42.716;23.344;2023-04-23T03:12:12;95342.78;;;12.38;51.38
64668;BME280;51077;42.716;23.344;2023-04-23T03:14:38;95337.81;;;12.37;51.47
64668;BME280;51077;42.716;23.344;2023-04-23T03:17:03;95349.56;;;12.37;51.35
64668;BME280;51077;42.716;23.344;2023-04-23T03:19:28;95352.09;;;12.35;51.44
64668;BME280;51077;42.716;23.344;2023-04-23T03:21:54;95353.34;;;12.34;51.36
64668;BME280;51077;42.716;23.344;2023-04-23T03:24:20;95363.38;;;12.31;51.45
64668;BME280;51077;42.716;23.344;2023-04-23T03:26:46;95362.13;;;12.32;51.63
64668;BME280;51077;42.716;23.344;2023-04-23T03:29:11;95355.66;;;12.30;51.55
64668;BME280;51077;42.716;23.344;2023-04-23T03:31:36;95356.69;;;12.27;51.73
64668;BME280;51077;42.716;23.344;2023-04-23T03:34:02;95361.69;;;12.28;51.34
64668;BME280;51077;42.716;23.344;2023-04-23T03:36:27;95366.66;;;12.30;51.37
64668;BME280;51077;42.716;23.344;2023-04-23T03:38:53;95365.19;;;12.29;51.43
64668;BME280;51077;42.716;23.344;2023-04-23T03:41:18;95365.69;;;12.27;51.32
64668;BME280;51077;42.716;23.344;2023-04-23T03:43:43;95364.94;;;12.27;51.26
64668;BME280;51077;42.716;23.344;2023-04-23T03:46:09;95364.75;;;12.25;51.44
64668;BME280;51077;42.716;23.344;2023-04-23T03:48:34;95368.44;;;12.27;51.14
64668;BME280;51077;42.716;23.344;2023-04-23T03:51:00;95369.66;;;12.32;51.28
64668;BME280;51077;42.716;23.344;2023-04-23T03:53:25;95368.38;;;12.33;52.71
64668;BME280;51077;42.716;23.344;2023-04-23T03:55:51;95377.09;;;12.37;53.89
64668;BME280;51077;42.716;23.344;2023-04-23T03:58:16;95378.50;;;12.44;55.93
64668;BME280;51077;42.716;23.344;2023-04-23T04:05:58;95378.28;;;12.93;61.60
64668;BME280;51077;42.716;23.344;2023-04-23T04:08:25;95382.66;;;13.01;60.47
64668;BME280;51077;42.716;23.344;2023-04-23T04:10:51;95388.19;;;13.15;63.62
64668;BME280;51077;42.716;23.344;2023-04-23T04:13:17;95381.81;;;13.39;63.14
64668;BME280;51077;42.716;23.344;2023-04-23T04:15:43;95393.50;;;13.45;61.77
64668;BME280;51077;42.716;23.344;2023-04-23T04:18:09;95390.00;;;13.44;61.19
64668;BME280;51077;42.716;23.344;2023-04-23T04:20:34;95386.50;;;13.44;60.63
64668;BME280;51077;42.716;23.344;2023-04-23T04:23:00;95390.53;;;13.43;60.22
64668;BME280;51077;42.716;23.344;2023-04-23T04:25:25;95386.06;;;13.40;59.65
64668;BME280;51077;42.716;23.344;2023-04-23T04:27:52;95394.34;;;13.40;59.35
64668;BME280;51077;42.716;23.344;2023-04-23T04:30:18;95397.31;;;13.42;58.66
64668;BME280;51077;42.716;23.344;2023-04-23T04:32:43;95392.97;;;13.46;58.60
64668;BME280;51077;42.716;23.344;2023-04-23T04:35:09;95396.69;;;13.49;57.81
64668;BME280;51077;42.716;23.344;2023-04-23T04:37:37;95398.50;;;13.60;57.26
64668;BME280;51077;42.716;23.344;2023-04-23T04:40:02;95401.28;;;13.73;56.66
64668;BME280;51077;42.716;23.344;2023-04-23T04:42:29;95399.06;;;13.98;55.80
64668;BME280;51077;42.716;23.344;2023-04-23T04:44:55;95409.44;;;14.18;55.01
64668;BME280;51077;42.716;23.344;2023-04-23T04:47:23;95411.00;;;14.40;54.13
64668;BME280;51077;42.716;23.344;2023-04-23T04:49:48;95413.66;;;14.59;53.43
64668;BME280;51077;42.716;23.344;2023-04-23T04:52:14;95410.31;;;14.74;52.67
64668;BME280;51077;42.716;23.344;2023-04-23T04:54:39;95413.78;;;14.88;52.05
64668;BME280;51077;42.716;23.344;2023-04-23T04:57:05;95421.50;;;15.02;51.79
64668;BME280;51077;42.716;23.344;2023-04-23T04:59:31;95418.25;;;15.12;51.25
64668;BME280;51077;42.716;23.344;2023-04-23T05:01:56;95422.78;;;15.22;50.84
64668;BME280;51077;42.716;23.344;2023-04-23T05:04:21;95422.63;;;15.28;50.55
64668;BME280;51077;42.716;23.344;2023-04-23T05:06:47;95426.69;;;15.27;50.31
64668;BME280;51077;42.716;23.344;2023-04-23T05:09:12;95417.97;;;15.23;50.44
64668;BME280;51077;42.716;23.344;2023-04-23T05:11:37;95425.69;;;15.17;50.43
64668;BME280;51077;42.716;23.344;2023-04-23T05:14:03;95420.63;;;15.07;50.59
64668;BME280;51077;42.716;23.344;2023-04-23T05:16:29;95418.50;;;15.00;50.98
64668;BME280;51077;42.716;23.344;2023-04-23T05:18:55;95426.06;;;15.00;50.88
64668;BME280;51077;42.716;23.344;2023-04-23T05:21:20;95430.13;;;14.99;51.06
64668;BME280;51077;42.716;23.344;2023-04-23T05:23:46;95419.25;;;15.01;51.01
64668;BME280;51077;42.716;23.344;2023-04-23T05:26:11;95420.75;;;15.02;50.75
64668;BME280;51077;42.716;23.344;2023-04-23T05:28:36;95419.66;;;15.05;50.87
64668;BME280;51077;42.716;23.344;2023-04-23T05:31:02;95423.78;;;15.12;50.82
64668;BME280;51077;42.716;23.344;2023-04-23T05:33:27;95435.44;;;15.18;50.61
64668;BME280;51077;42.716;23.344;2023-04-23T05:35:53;95434.25;;;15.26;50.35
64668;BME280;51077;42.716;23.344;2023-04-23T05:38:19;95437.09;;;15.34;50.15
64668;BME280;51077;42.716;23.344;2023-04-23T05:40:44;95432.56;;;15.44;50.07
64668;BME280;51077;42.716;23.344;2023-04-23T05:43:11;95427.09;;;15.52;49.73
64668;BME280;51077;42.716;23.344;2023-04-23T05:45:36;95425.69;;;15.58;49.59
64668;BME280;51077;42.716;23.344;2023-04-23T05:48:02;95429.06;;;15.65;49.17
64668;BME280;51077;42.716;23.344;2023-04-23T05:50:28;95424.88;;;15.71;49.04
64668;BME280;51077;42.716;23.344;2023-04-23T05:52:53;95432.16;;;15.82;48.95
64668;BME280;51077;42.716;23.344;2023-04-23T05:55:19;95430.19;;;15.90;48.56
64668;BME280;51077;42.716;23.344;2023-04-23T05:57:45;95428.38;;;16.00;48.28
64668;BME280;51077;42.716;23.344;2023-04-23T06:00:11;95434.53;;;16.06;48.16
64668;BME280;51077;42.716;23.344;2023-04-23T06:02:37;95437.16;;;16.12;47.87
64668;BME280;51077;42.716;23.344;2023-04-23T06:05:04;95426.31;;;16.22;47.83
64668;BME280;51077;42.716;23.344;2023-04-23T06:07:30;95424.88;;;16.36;47.48
64668;BME280;51077;42.716;23.344;2023-04-23T06:09:55;95434.38;;;16.48;47.29
64668;BME280;51077;42.716;23.344;2023-04-23T06:12:21;95420.38;;;16.62;47.03
64668;BME280;51077;42.716;23.344;2023-04-23T06:14:46;95422.31;;;16.74;46.50
64668;BME280;51077;42.716;23.344;2023-04-23T06:17:12;95417.34;;;16.88;46.41
64668;BME280;51077;42.716;23.344;2023-04-23T06:19:37;95418.50;;;17.00;46.02
64668;BME280;51077;42.716;23.344;2023-04-23T06:22:02;95426.31;;;17.17;45.95
64668;BME280;51077;42.716;23.344;2023-04-23T06:24:28;95423.94;;;17.29;45.43
64668;BME280;51077;42.716;23.344;2023-04-23T06:26:54;95415.59;;;17.44;45.33
64668;BME280;51077;42.716;23.344;2023-04-23T06:29:20;95423.94;;;17.59;44.93
64668;BME280;51077;42.716;23.344;2023-04-23T06:31:45;95420.25;;;17.72;44.70
64668;BME280;51077;42.716;23.344;2023-04-23T06:34:11;95426.38;;;17.86;44.32
64668;BME280;51077;42.716;23.344;2023-04-23T06:36:36;95430.25;;;17.98;44.17
64668;BME280;51077;42.716;23.344;2023-04-23T06:39:02;95424.47;;;18.12;43.92
64668;BME280;51077;42.716;23.344;2023-04-23T06:41:27;95428.31;;;18.24;43.50
64668;BME280;51077;42.716;23.344;2023-04-23T06:43:53;95418.28;;;18.36;43.33
64668;BME280;51077;42.716;23.344;2023-04-23T06:46:18;95417.50;;;18.51;43.30
64668;BME280;51077;42.716;23.344;2023-04-23T06:48:44;95423.56;;;18.65;43.08
64668;BME280;51077;42.716;23.344;2023-04-23T06:51:09;95422.97;;;18.81;42.61
64668;BME280;51077;42.716;23.344;2023-04-23T06:53:35;95418.06;;;18.97;42.53
64668;BME280;51077;42.716;23.344;2023-04-23T06:56:00;95426.50;;;19.15;42.18
64668;BME280;51077;42.716;23.344;2023-04-23T06:58:26;95422.31;;;19.31;41.99
64668;BME280;51077;42.716;23.344;2023-04-23T07:00:56;95418.88;;;19.48;41.81
64668;BME280;51077;42.716;23.344;2023-04-23T07:03:25;95416.91;;;19.66;41.51
64668;BME280;51077;42.716;23.344;2023-04-23T07:05:51;95422.66;;;19.85;41.31
64668;BME280;51077;42.716;23.344;2023-04-23T07:08:16;95415.66;;;20.01;41.05
64668;BME280;51077;42.716;23.344;2023-04-23T07:10:41;95415.84;;;20.21;40.78
64668;BME280;51077;42.716;23.344;2023-04-23T07:13:07;95419.38;;;20.39;40.39
64668;BME280;51077;42.716;23.344;2023-04-23T07:15:32;95418.22;;;20.59;40.33
64668;BME280;51077;42.716;23.344;2023-04-23T07:17:57;95411.31;;;20.77;40.07
64668;BME280;51077;42.716;23.344;2023-04-23T07:20:23;95414.97;;;20.97;39.73
64668;BME280;51077;42.716;23.344;2023-04-23T07:22:48;95410.78;;;21.16;39.32
64668;BME280;51077;42.716;23.344;2023-04-23T07:25:14;95409.84;;;21.30;38.74
64668;BME280;51077;42.716;23.344;2023-04-23T07:27:40;95408.16;;;21.45;38.53
64668;BME280;51077;42.716;23.344;2023-04-23T07:30:05;95404.09;;;21.55;38.21
64668;BME280;51077;42.716;23.344;2023-04-23T07:32:32;95400.19;;;21.68;38.06
64668;BME280;51077;42.716;23.344;2023-04-23T07:34:57;95406.22;;;21.84;37.83
64668;BME280;51077;42.716;23.344;2023-04-23T07:37:22;95407.44;;;21.91;37.55
64668;BME280;51077;42.716;23.344;2023-04-23T07:39:48;95401.28;;;22.02;37.61
64668;BME280;51077;42.716;23.344;2023-04-23T07:42:13;95400.09;;;22.05;37.23
64668;BME280;51077;42.716;23.344;2023-04-23T07:44:38;95396.78;;;22.16;37.20
64668;BME280;51077;42.716;23.344;2023-04-23T07:47:04;95407.06;;;22.33;37.06
64668;BME280;51077;42.716;23.344;2023-04-23T07:49:30;95409.72;;;22.50;36.52
64668;BME280;51077;42.716;23.344;2023-04-23T07:51:55;95402.66;;;22.69;36.14
64668;BME280;51077;42.716;23.344;2023-04-23T07:54:21;95399.25;;;22.90;35.76
64668;BME280;51077;42.716;23.344;2023-04-23T07:56:46;95407.19;;;23.13;35.76
64668;BME280;51077;42.716;23.344;2023-04-23T07:59:12;95401.66;;;23.34;35.25
64668;BME280;51077;42.716;23.344;2023-04-23T08:01:37;95401.44;;;23.51;35.06
64668;BME280;51077;42.716;23.344;2023-04-23T08:04:02;95404.06;;;23.59;34.68
64668;BME280;51077;42.716;23.344;2023-04-23T08:06:28;95410.06;;;23.75;34.64
64668;BME280;51077;42.716;23.344;2023-04-23T08:08:55;95412.06;;;23.84;34.36
64668;BME280;51077;42.716;23.344;2023-04-23T08:11:21;95399.41;;;23.83;34.03
64668;BME280;51077;42.716;23.344;2023-04-23T08:13:47;95404.56;;;23.87;33.99
64668;BME280;51077;42.716;23.344;2023-04-23T08:16:13;95398.72;;;23.94;33.97
64668;BME280;51077;42.716;23.344;2023-04-23T08:18:38;95402.34;;;24.06;33.43
64668;BME280;51077;42.716;23.344;2023-04-23T08:21:04;95392.56;;;24.17;33.40
64668;BME280;51077;42.716;23.344;2023-04-23T08:23:29;95393.88;;;24.38;33.03
64668;BME280;51077;42.716;23.344;2023-04-23T08:25:55;95397.03;;;24.53;32.71
64668;BME280;51077;42.716;23.344;2023-04-23T08:28:20;95400.63;;;24.66;32.08
64668;BME280;51077;42.716;23.344;2023-04-23T08:30:55;95396.53;;;24.90;31.88
64668;BME280;51077;42.716;23.344;2023-04-23T08:33:21;95396.38;;;25.10;31.35
64668;BME280;51077;42.716;23.344;2023-04-23T08:35:47;95384.44;;;25.32;31.28
64668;BME280;51077;42.716;23.344;2023-04-23T08:38:13;95390.81;;;25.56;31.08
64668;BME280;51077;42.716;23.344;2023-04-23T08:40:40;95373.94;;;25.68;31.05
64668;BME280;51077;42.716;23.344;2023-04-23T08:43:18;95380.19;;;25.67;30.86
64668;BME280;51077;42.716;23.344;2023-04-23T08:45:47;95382.13;;;25.76;30.60
64668;BME280;51077;42.716;23.344;2023-04-23T08:48:13;95373.81;;;25.90;30.83
64668;BME280;51077;42.716;23.344;2023-04-23T08:50:43;95369.88;;;26.06;30.28
64668;BME280;51077;42.716;23.344;2023-04-23T08:53:09;95370.94;;;26.25;30.42
64668;BME280;51077;42.716;23.344;2023-04-23T08:55:35;95367.94;;;26.46;29.99
64668;BME280;51077;42.716;23.344;2023-04-23T08:58:00;95364.47;;;26.60;29.76
64668;BME280;51077;42.716;23.344;2023-04-23T09:00:28;95365.84;;;26.84;29.53
64668;BME280;51077;42.716;23.344;2023-04-23T09:02:53;95364.81;;;26.91;29.16
64668;BME280;51077;42.716;23.344;2023-04-23T09:05:20;95356.41;;;27.05;28.58
64668;BME280;51077;42.716;23.344;2023-04-23T09:07:45;95353.44;;;27.15;28.59
64668;BME280;51077;42.716;23.344;2023-04-23T09:10:12;95360.56;;;27.29;28.35
64668;BME280;51077;42.716;23.344;2023-04-23T09:12:40;95360.06;;;27.47;28.30
64668;BME280;51077;42.716;23.344;2023-04-23T09:15:07;95354.66;;;27.65;28.03
64668;BME280;51077;42.716;23.344;2023-04-23T09:17:44;95352.59;;;27.79;27.37
64668;BME280;51077;42.716;23.344;2023-04-23T09:20:11;95352.16;;;27.98;27.33
64668;BME280;51077;42.716;23.344;2023-04-23T09:22:54;95349.31;;;28.12;27.23
64668;BME280;51077;42.716;23.344;2023-04-23T09:25:21;95351.94;;;28.08;26.72
64668;BME280;51077;42.716;23.344;2023-04-23T09:27:49;95346.84;;;28.04;26.78
64668;BME280;51077;42.716;23.344;2023-04-23T09:30:15;95348.09;;;27.88;28.00
64668;BME280;51077;42.716;23.344;2023-04-23T09:32:41;95345.34;;;28.03;27.73
64668;BME280;51077;42.716;23.344;2023-04-23T09:35:09;95344.41;;;28.13;27.65
64668;BME280;51077;42.716;23.344;2023-04-23T09:37:35;95340.91;;;28.42;27.52
64668;BME280;51077;42.716;23.344;2023-04-23T09:40:05;95336.53;;;28.68;27.27
64668;BME280;51077;42.716;23.344;2023-04-23T09:42:34;95335.13;;;28.83;26.68
64668;BME280;51077;42.716;23.344;2023-04-23T09:45:06;95328.38;;;28.90;26.41
64668;BME280;51077;42.716;23.344;2023-04-23T09:47:40;95323.50;;;29.07;25.99
64668;BME280;51077;42.716;23.344;2023-04-23T09:50:07;95321.25;;;29.19;26.16
64668;BME280;51077;42.716;23.344;2023-04-23T09:52:37;95313.38;;;29.33;26.03
64668;BME280;51077;42.716;23.344;2023-04-23T09:55:04;95317.13;;;29.53;26.08
64668;BME280;51077;42.716;23.344;2023-04-23T09:57:43;95313.84;;;29.75;25.15
64668;BME280;51077;42.716;23.344;2023-04-23T10:00:16;95310.50;;;29.96;24.91
64668;BME280;51077;42.716;23.344;2023-04-23T10:02:47;95315.47;;;30.14;24.59
64668;BME280;51077;42.716;23.344;2023-04-23T10:05:23;95309.13;;;30.31;24.49
64668;BME280;51077;42.716;23.344;2023-04-23T10:07:48;95297.81;;;30.49;24.68
64668;BME280;51077;42.716;23.344;2023-04-23T10:10:15;95296.50;;;30.70;24.62
64668;BME280;51077;42.716;23.344;2023-04-23T10:12:41;95287.91;;;30.86;24.50
64668;BME280;51077;42.716;23.344;2023-04-23T10:15:08;95282.56;;;30.94;24.80
64668;BME280;51077;42.716;23.344;2023-04-23T10:17:35;95293.63;;;31.06;25.32
64668;BME280;51077;42.716;23.344;2023-04-23T10:20:01;95287.75;;;31.19;24.73
64668;BME280;51077;42.716;23.344;2023-04-23T10:22:29;95279.06;;;31.33;24.68
64668;BME280;51077;42.716;23.344;2023-04-23T10:24:55;95278.94;;;31.49;24.50
64668;BME280;51077;42.716;23.344;2023-04-23T10:27:27;95271.06;;;31.67;24.29
64668;BME280;51077;42.716;23.344;2023-04-23T10:29:53;95272.22;;;31.80;23.34
64668;BME280;51077;42.716;23.344;2023-04-23T10:32:19;95265.09;;;31.79;23.09
64668;BME280;51077;42.716;23.344;2023-04-23T10:34:45;95259.09;;;31.91;22.43
64668;BME280;51077;42.716;23.344;2023-04-23T10:37:11;95258.03;;;31.80;23.17
64668;BME280;51077;42.716;23.344;2023-04-23T10:39:37;95254.97;;;31.74;24.74
64668;BME280;51077;42.716;23.344;2023-04-23T10:42:03;95244.53;;;31.81;24.56
64668;BME280;51077;42.716;23.344;2023-04-23T10:44:34;95249.66;;;31.84;23.77
64668;BME280;51077;42.716;23.344;2023-04-23T10:47:00;95248.84;;;31.82;24.10
64668;BME280;51077;42.716;23.344;2023-04-23T10:49:30;95243.00;;;31.97;23.77
64668;BME280;51077;42.716;23.344;2023-04-23T10:52:09;95239.25;;;32.13;22.54
64668;BME280;51077;42.716;23.344;2023-04-23T10:54:39;95238.88;;;32.22;22.52
64668;BME280;51077;42.716;23.344;2023-04-23T10:57:06;95237.13;;;32.35;22.38
64668;BME280;51077;42.716;23.344;2023-04-23T10:59:34;95233.56;;;32.57;21.96
64668;BME280;51077;42.716;23.344;2023-04-23T11:02:06;95224.13;;;32.74;21.85
64668;BME280;51077;42.716;23.344;2023-04-23T11:04:34;95213.84;;;32.63;21.74
64668;BME280;51077;42.716;23.344;2023-04-23T11:07:07;95220.03;;;32.79;21.34
64668;BME280;51077;42.716;23.344;2023-04-23T11:09:45;95221.91;;;32.94;21.52
64668;BME280;51077;42.716;23.344;2023-04-23T11:12:12;95210.09;;;33.04;20.90
64668;BME280;51077;42.716;23.344;2023-04-23T11:17:11;95211.00;;;33.37;19.30
64668;BME280;51077;42.716;23.344;2023-04-23T11:19:38;95202.22;;;33.26;19.41
64668;BME280;51077;42.716;23.344;2023-04-23T11:22:12;95200.81;;;33.27;19.88
64668;BME280;51077;42.716;23.344;2023-04-23T11:24:39;95191.44;;;33.49;18.83
64668;BME280;51077;42.716;23.344;2023-04-23T11:27:13;95189.94;;;33.20;19.56
64668;BME280;51077;42.716;23.344;2023-04-23T11:29:40;95192.44;;;33.08;19.58
64668;BME280;51077;42.716;23.344;2023-04-23T11:32:07;95193.72;;;33.02;19.56
64668;BME280;51077;42.716;23.344;2023-04-23T11:34:43;95175.38;;;33.08;19.27
64668;BME280;51077;42.716;23.344;2023-04-23T11:37:13;95178.50;;;33.18;19.27
64668;BME280;51077;42.716;23.344;2023-04-23T11:39:40;95172.50;;;33.34;19.29
64668;BME280;51077;42.716;23.344;2023-04-23T11:42:10;95181.16;;;33.38;18.90
64668;BME280;51077;42.716;23.344;2023-04-23T11:44:38;95169.41;;;33.49;18.72
64668;BME280;51077;42.716;23.344;2023-04-23T11:47:09;95164.75;;;33.62;18.64
64668;BME280;51077;42.716;23.344;2023-04-23T11:49:36;95164.25;;;33.70;18.68
64668;BME280;51077;42.716;23.344;2023-04-23T11:52:02;95167.84;;;33.72;18.51
64668;BME280;51077;42.716;23.344;2023-04-23T11:54:28;95161.84;;;33.88;18.12
64668;BME280;51077;42.716;23.344;2023-04-23T11:56:53;95160.56;;;33.95;18.38
64668;BME280;51077;42.716;23.344;2023-04-23T11:59:19;95157.09;;;33.97;17.94
64668;BME280;51077;42.716;23.344;2023-04-23T12:01:47;95163.91;;;34.14;17.77
64668;BME280;51077;42.716;23.344;2023-04-23T12:04:18;95162.38;;;34.41;16.90
64668;BME280;51077;42.716;23.344;2023-04-23T12:06:45;95157.09;;;34.27;17.00
64668;BME280;51077;42.716;23.344;2023-04-23T12:09:12;95141.28;;;34.22;17.06
64668;BME280;51077;42.716;23.344;2023-04-23T12:11:42;95152.44;;;34.12;16.67
64668;BME280;51077;42.716;23.344;2023-04-23T12:14:10;95153.66;;;34.03;16.93
64668;BME280;51077;42.716;23.344;2023-04-23T12:16:40;95150.00;;;33.98;17.20
64668;BME280;51077;42.716;23.344;2023-04-23T12:19:12;95149.59;;;34.12;16.90
64668;BME280;51077;42.716;23.344;2023-04-23T12:21:57;95145.31;;;34.11;16.60
64668;BME280;51077;42.716;23.344;2023-04-23T12:24:24;95153.63;;;34.00;16.71
64668;BME280;51077;42.716;23.344;2023-04-23T12:26:55;95140.25;;;34.07;16.50
64668;BME280;51077;42.716;23.344;2023-04-23T12:29:25;95131.00;;;34.09;16.49
64668;BME280;51077;42.716;23.344;2023-04-23T12:31:52;95133.00;;;33.74;16.71
64668;BME280;51077;42.716;23.344;2023-04-23T12:34:19;95128.78;;;33.75;16.97
64668;BME280;51077;42.716;23.344;2023-04-23T12:36:50;95130.75;;;33.40;17.10
64668;BME280;51077;42.716;23.344;2023-04-23T12:39:20;95124.34;;;32.88;17.44
64668;BME280;51077;42.716;23.344;2023-04-23T12:41:50;95119.56;;;32.44;17.94
64668;BME280;51077;42.716;23.344;2023-04-23T12:44:16;95117.47;;;32.23;17.83
64668;BME280;51077;42.716;23.344;2023-04-23T12:46:41;95116.66;;;32.20;18.08
64668;BME280;51077;42.716;23.344;2023-04-23T12:49:07;95115.19;;;32.41;17.56
64668;BME280;51077;42.716;23.344;2023-04-23T12:51:32;95122.09;;;32.12;20.20
64668;BME280;51077;42.716;23.344;2023-04-23T12:53:57;95120.22;;;31.53;20.83
64668;BME280;51077;42.716;23.344;2023-04-23T12:56:23;95117.16;;;31.05;22.30